createdAt,value
2018-05-01T00:00:29.545Z,45.12
2018-05-01T00:01:29.529Z,45.12
2018-05-01T00:02:29.508Z,45.12
2018-05-01T00:03:29.485Z,45.40
2018-05-01T00:04:29.468Z,45.40
2018-05-01T00:05:29.451Z,45.12
2018-05-01T00:06:29.438Z,45.12
2018-05-01T00:07:29.409Z,45.21
2018-05-01T00:08:29.396Z,44.83
2018-05-01T00:09:29.374Z,44.73
2018-05-01T00:10:29.356Z,45.14
2018-05-01T00:11:29.330Z,45.40
2018-05-01T00:12:29.315Z,45.02
2018-05-01T00:13:29.292Z,45.12
2018-05-01T00:14:29.271Z,45.02
2018-05-01T00:15:29.252Z,45.12
2018-05-01T00:16:29.231Z,45.12
2018-05-01T00:17:29.222Z,44.73
2018-05-01T00:18:29.192Z,45.31
2018-05-01T00:19:29.175Z,45.59
2018-05-01T00:20:29.152Z,45.21
2018-05-01T00:21:29.137Z,45.50
2018-05-01T00:22:29.111Z,45.69
2018-05-01T00:23:29.099Z,45.59
2018-05-01T00:24:29.082Z,45.89
2018-05-01T00:25:29.054Z,45.98
2018-05-01T00:26:29.036Z,45.89
2018-05-01T00:27:29.013Z,46.53
2018-05-01T00:28:28.994Z,46.53
2018-05-01T00:29:28.974Z,46.34
2018-05-01T00:30:28.950Z,46.25
2018-05-01T00:31:28.951Z,45.86
2018-05-01T00:32:28.921Z,46.82
2018-05-01T00:33:28.902Z,46.82
2018-05-01T00:34:28.878Z,46.62
2018-05-01T00:35:28.857Z,47.39
2018-05-01T00:36:28.829Z,47.30
2018-05-01T00:37:28.819Z,46.62
2018-05-01T00:38:28.798Z,47.11
2018-05-01T00:39:28.771Z,47.68
2018-05-01T00:40:28.795Z,47.78
2018-05-01T00:41:28.803Z,47.49
2018-05-01T00:42:28.712Z,47.39
2018-05-01T00:43:28.699Z,48.07
2018-05-01T00:44:28.670Z,47.68
2018-05-01T00:45:28.650Z,48.23
2018-05-01T00:46:28.642Z,47.75
2018-05-01T00:47:28.609Z,47.47
2018-05-01T00:48:28.590Z,48.13
2018-05-01T00:49:28.571Z,48.13
2018-05-01T00:50:28.556Z,47.18
2018-05-01T00:51:28.551Z,47.87
2018-05-01T00:52:28.512Z,47.68
2018-05-01T00:53:28.493Z,48.07
2018-05-01T00:54:28.472Z,47.78
2018-05-01T00:55:28.454Z,47.11
2018-05-01T00:56:28.442Z,47.30
2018-05-01T00:57:28.409Z,47.39
2018-05-01T00:58:28.400Z,47.39
2018-05-01T00:59:28.365Z,47.11
2018-05-01T01:00:28.350Z,47.11
2018-05-01T01:01:28.332Z,47.20
2018-05-01T01:02:28.310Z,47.20
2018-05-01T01:03:28.285Z,47.20
2018-05-01T01:04:28.265Z,47.20
2018-05-01T01:05:28.249Z,47.20
2018-05-01T01:06:28.227Z,47.01
2018-05-01T01:07:28.207Z,47.68
2018-05-01T01:08:28.181Z,47.20
2018-05-01T01:09:28.165Z,47.30
2018-05-01T01:10:28.145Z,47.11
2018-05-01T01:11:28.125Z,47.49
2018-05-01T01:12:28.104Z,47.01
2018-05-01T01:13:28.089Z,47.11
2018-05-01T01:14:28.069Z,47.01
2018-05-01T01:15:28.043Z,47.11
2018-05-01T01:16:28.026Z,47.20
2018-05-01T01:17:28.017Z,47.30
2018-05-01T01:18:27.984Z,47.30
2018-05-01T01:19:27.975Z,47.11
2018-05-01T01:20:27.944Z,46.91
2018-05-01T01:21:27.925Z,47.11
2018-05-01T01:22:27.903Z,46.72
2018-05-01T01:23:27.879Z,47.11
2018-05-01T01:24:27.907Z,46.91
2018-05-01T01:25:27.937Z,46.72
2018-05-01T01:26:27.933Z,46.91
2018-05-01T01:27:28.814Z,47.39
2018-05-01T01:28:27.910Z,47.11
2018-05-01T01:29:27.845Z,47.30
2018-05-01T01:30:48.744Z,47.01
2018-05-01T01:31:27.721Z,47.39
2018-05-01T01:32:27.703Z,47.11
2018-05-01T01:33:27.687Z,47.39
2018-05-01T01:34:27.661Z,47.30
2018-05-01T01:35:27.644Z,47.49
2018-05-01T01:36:27.630Z,46.91
2018-05-01T01:37:27.609Z,47.30
2018-05-01T01:38:27.580Z,47.20
2018-05-01T01:39:27.562Z,47.20
2018-05-01T01:40:27.538Z,47.37
2018-05-01T01:41:27.538Z,47.37
2018-05-01T01:42:27.496Z,47.08
2018-05-01T01:43:27.476Z,47.08
2018-05-01T01:44:27.457Z,46.98
2018-05-01T01:45:27.439Z,47.18
2018-05-01T01:46:27.422Z,47.18
2018-05-01T01:47:27.396Z,46.89
2018-05-01T01:48:28.059Z,47.20
2018-05-01T01:49:27.365Z,46.98
2018-05-01T01:50:27.339Z,47.08
2018-05-01T01:51:27.324Z,47.18
2018-05-01T01:52:27.297Z,47.39
2018-05-01T01:53:27.280Z,47.11
2018-05-01T01:54:27.266Z,46.91
2018-05-01T01:55:27.233Z,46.98
2018-05-01T01:56:27.215Z,47.37
2018-05-01T01:57:27.198Z,47.85
2018-05-01T01:58:27.175Z,47.56
2018-05-01T01:59:27.152Z,47.27
2018-05-01T02:00:27.144Z,47.47
2018-05-01T02:01:27.112Z,47.56
2018-05-01T02:02:27.098Z,47.66
2018-05-01T02:03:27.069Z,47.37
2018-05-01T02:04:27.051Z,47.66
2018-05-01T02:05:27.041Z,47.18
2018-05-01T02:06:27.011Z,47.66
2018-05-01T02:07:26.992Z,48.23
2018-05-01T02:08:27.015Z,47.18
2018-05-01T02:09:27.238Z,47.56
2018-05-01T02:10:26.940Z,47.66
2018-05-01T02:11:26.906Z,48.42
2018-05-01T02:12:26.893Z,47.56
2018-05-01T02:13:26.869Z,47.06
2018-05-01T02:14:26.849Z,48.11
2018-05-01T02:15:26.832Z,47.73
2018-05-01T02:16:26.809Z,48.39
2018-05-01T02:17:26.784Z,48.49
2018-05-01T02:18:26.763Z,48.11
2018-05-01T02:19:26.748Z,47.92
2018-05-01T02:20:26.720Z,47.92
2018-05-01T02:21:26.702Z,47.82
2018-05-01T02:22:26.684Z,48.68
2018-05-01T02:23:26.672Z,48.21
2018-05-01T02:24:26.641Z,48.78
2018-05-01T02:25:26.623Z,48.49
2018-05-01T02:26:26.601Z,48.49
2018-05-01T02:27:26.600Z,48.30
2018-05-01T02:28:26.557Z,48.30
2018-05-01T02:29:26.536Z,48.21
2018-05-01T02:30:26.654Z,48.39
2018-05-01T02:31:26.495Z,48.88
2018-05-01T02:32:26.471Z,48.30
2018-05-01T02:33:26.454Z,48.11
2018-05-01T02:34:26.450Z,49.16
2018-05-01T02:35:26.412Z,48.78
2018-05-01T02:36:26.394Z,48.59
2018-05-01T02:37:26.378Z,49.16
2018-05-01T02:38:26.352Z,48.68
2018-05-01T02:39:26.330Z,48.88
2018-05-01T02:40:26.310Z,48.68
2018-05-01T02:41:26.298Z,49.07
2018-05-01T02:42:26.283Z,48.97
2018-05-01T02:43:26.246Z,48.97
2018-05-01T02:44:26.225Z,49.16
2018-05-01T02:45:26.205Z,49.45
2018-05-01T02:46:26.215Z,49.16
2018-05-01T02:47:26.166Z,49.35
2018-05-01T02:48:26.141Z,49.16
2018-05-01T02:49:26.126Z,48.97
2018-05-01T02:50:26.101Z,49.93
2018-05-01T02:51:26.128Z,49.16
2018-05-01T02:52:26.061Z,49.45
2018-05-01T02:53:26.067Z,49.26
2018-05-01T02:54:26.021Z,49.35
2018-05-01T02:55:25.998Z,49.84
2018-05-01T02:56:25.975Z,49.45
2018-05-01T02:57:25.968Z,49.45
2018-05-01T02:58:25.950Z,49.93
2018-05-01T02:59:25.960Z,49.45
2018-05-01T03:00:25.981Z,50.12
2018-05-01T03:01:25.965Z,49.84
2018-05-01T03:02:25.927Z,49.84
2018-05-01T03:03:25.893Z,50.12
2018-05-01T03:04:25.855Z,50.70
2018-05-01T03:05:25.808Z,50.02
2018-05-01T03:06:25.781Z,50.41
2018-05-01T03:07:25.747Z,50.21
2018-05-01T03:08:25.733Z,50.21
2018-05-01T03:09:25.709Z,50.41
2018-05-01T03:10:25.687Z,50.60
2018-05-01T03:11:25.666Z,50.76
2018-05-01T03:12:25.645Z,50.89
2018-05-01T03:13:25.620Z,51.07
2018-05-01T03:14:25.601Z,50.50
2018-05-01T03:15:25.580Z,50.70
2018-05-01T03:16:25.563Z,51.07
2018-05-01T03:17:25.544Z,51.17
2018-05-01T03:18:25.521Z,50.95
2018-05-01T03:19:25.502Z,50.21
2018-05-01T03:20:25.473Z,50.79
2018-05-01T03:21:25.453Z,50.98
2018-05-01T03:22:25.433Z,50.89
2018-05-01T03:23:25.430Z,50.89
2018-05-01T03:24:25.390Z,50.79
2018-05-01T03:25:25.450Z,51.05
2018-05-01T03:26:25.361Z,51.15
2018-05-01T03:27:25.330Z,51.24
2018-05-01T03:28:25.314Z,50.95
2018-05-01T03:29:25.290Z,51.05
2018-05-01T03:30:25.267Z,51.17
2018-05-01T03:31:25.251Z,51.05
2018-05-01T03:32:25.253Z,51.46
2018-05-01T03:33:25.206Z,51.56
2018-05-01T03:34:25.230Z,51.24
2018-05-01T03:35:25.162Z,51.62
2018-05-01T03:36:25.143Z,51.72
2018-05-01T03:37:25.120Z,51.62
2018-05-01T03:38:25.100Z,51.34
2018-05-01T03:39:25.080Z,51.72
2018-05-01T03:40:25.061Z,51.62
2018-05-01T03:41:25.042Z,51.62
2018-05-01T03:42:25.031Z,51.24
2018-05-01T03:43:25.046Z,51.56
2018-05-01T03:44:24.989Z,51.84
2018-05-01T03:45:24.952Z,51.56
2018-05-01T03:46:24.930Z,51.75
2018-05-01T03:47:24.916Z,51.62
2018-05-01T03:48:24.892Z,51.75
2018-05-01T03:49:24.869Z,51.75
2018-05-01T03:50:24.845Z,51.46
2018-05-01T03:51:24.832Z,51.36
2018-05-01T03:52:24.803Z,51.36
2018-05-01T03:53:24.784Z,51.36
2018-05-01T03:54:24.763Z,51.36
2018-05-01T03:55:24.743Z,51.36
2018-05-01T03:56:24.719Z,51.36
2018-05-01T03:57:24.704Z,51.17
2018-05-01T03:58:24.687Z,50.89
2018-05-01T03:59:24.661Z,50.98
2018-05-01T04:00:24.649Z,51.36
2018-05-01T04:01:39.226Z,51.46
2018-05-01T04:02:24.602Z,51.65
2018-05-01T04:03:24.576Z,51.93
2018-05-01T04:04:24.557Z,51.56
2018-05-01T04:05:24.538Z,51.27
2018-05-01T04:06:24.520Z,51.36
2018-05-01T04:07:24.501Z,51.56
2018-05-01T04:08:24.478Z,51.34
2018-05-01T04:09:24.452Z,51.17
2018-05-01T04:10:24.437Z,51.62
2018-05-01T04:11:24.410Z,51.65
2018-05-01T04:12:24.391Z,51.53
2018-05-01T04:13:24.372Z,51.36
2018-05-01T04:14:24.388Z,51.56
2018-05-01T04:15:24.330Z,51.56
2018-05-01T04:16:24.313Z,51.36
2018-05-01T04:17:24.330Z,51.56
2018-05-01T04:18:24.311Z,51.62
2018-05-01T04:19:24.247Z,51.46
2018-05-01T04:20:24.227Z,51.46
2018-05-01T04:21:24.201Z,51.27
2018-05-01T04:22:24.185Z,51.75
2018-05-01T04:23:24.166Z,51.36
2018-05-01T04:24:24.141Z,51.46
2018-05-01T04:25:24.148Z,51.27
2018-05-01T04:26:24.103Z,51.72
2018-05-01T04:27:24.084Z,51.56
2018-05-01T04:28:24.059Z,51.36
2018-05-01T04:29:24.040Z,51.46
2018-05-01T04:30:24.028Z,51.56
2018-05-01T04:31:24.032Z,51.46
2018-05-01T04:33:58.701Z,52.13
2018-05-01T04:34:58.599Z,52.20
2018-05-01T04:36:54.637Z,51.81
2018-05-01T04:37:54.553Z,51.43
2018-05-01T04:39:50.541Z,51.62
2018-05-01T04:40:50.453Z,51.34
2018-05-01T04:42:46.520Z,51.72
2018-05-01T04:43:46.343Z,51.91
2018-05-01T04:45:42.461Z,51.72
2018-05-01T04:46:42.407Z,51.62
2018-05-01T04:48:38.419Z,51.34
2018-05-01T04:49:38.331Z,51.62
2018-05-01T04:51:34.845Z,51.43
2018-05-01T04:52:34.694Z,51.24
2018-05-01T04:54:31.749Z,51.53
2018-05-01T04:55:31.593Z,51.15
2018-05-01T04:57:28.497Z,51.34
2018-05-01T04:58:28.363Z,51.05
2018-05-01T04:59:28.347Z,51.43
2018-05-01T05:00:28.319Z,51.34
2018-05-01T05:01:28.291Z,51.43
2018-05-01T05:02:28.274Z,50.93
2018-05-01T05:03:28.263Z,51.53
2018-05-01T05:04:28.279Z,51.05
2018-05-01T05:05:28.206Z,51.12
2018-05-01T05:06:28.196Z,51.53
2018-05-01T05:07:28.171Z,51.89
2018-05-01T05:08:28.158Z,51.41
2018-05-01T05:09:28.189Z,51.41
2018-05-01T05:10:28.106Z,51.70
2018-05-01T05:11:28.079Z,51.60
2018-05-01T05:12:28.067Z,52.17
2018-05-01T05:13:28.069Z,52.36
2018-05-01T05:14:28.070Z,52.46
2018-05-01T05:15:28.079Z,52.17
2018-05-01T05:16:28.050Z,52.65
2018-05-01T05:17:27.988Z,52.36
2018-05-01T05:18:28.036Z,51.98
2018-05-01T05:19:27.909Z,51.89
2018-05-01T05:20:27.887Z,51.50
2018-05-01T05:21:27.874Z,51.89
2018-05-01T05:22:27.862Z,51.89
2018-05-01T05:23:27.823Z,51.79
2018-05-01T05:24:27.802Z,51.98
2018-05-01T05:25:27.785Z,51.89
2018-05-01T05:26:27.761Z,52.17
2018-05-01T05:27:27.745Z,51.89
2018-05-01T05:28:27.726Z,52.36
2018-05-01T05:29:27.708Z,52.26
2018-05-01T05:30:27.677Z,52.26
2018-05-01T05:31:27.656Z,52.08
2018-05-01T05:32:27.639Z,51.98
2018-05-01T05:33:27.684Z,52.36
2018-05-01T05:34:27.591Z,51.79
2018-05-01T05:35:27.575Z,52.36
2018-05-01T05:36:27.550Z,52.26
2018-05-01T05:37:27.531Z,52.36
2018-05-01T05:38:27.515Z,51.79
2018-05-01T05:39:27.539Z,51.89
2018-05-01T05:40:27.488Z,51.31
2018-05-01T05:41:27.444Z,51.79
2018-05-01T05:42:27.426Z,51.79
2018-05-01T05:43:27.426Z,52.26
2018-05-01T05:44:27.384Z,52.26
2018-05-01T05:45:27.359Z,51.98
2018-05-01T05:46:27.340Z,51.98
2018-05-01T05:47:27.320Z,52.46
2018-05-01T05:48:27.296Z,51.98
2018-05-01T05:49:27.278Z,51.89
2018-05-01T05:50:27.253Z,52.46
2018-05-01T05:51:27.248Z,51.89
2018-05-01T05:52:27.207Z,51.98
2018-05-01T05:53:27.187Z,51.89
2018-05-01T05:54:27.190Z,51.98
2018-05-01T05:55:27.160Z,52.17
2018-05-01T05:56:27.130Z,51.89
2018-05-01T05:57:34.062Z,51.89
2018-05-01T05:58:27.088Z,51.03
2018-05-01T05:59:27.064Z,50.84
2018-05-01T06:00:27.038Z,50.64
2018-05-01T06:01:27.019Z,51.03
2018-05-01T06:02:27.016Z,50.64
2018-05-01T06:03:26.975Z,50.84
2018-05-01T06:04:26.954Z,50.84
2018-05-01T06:05:26.934Z,51.21
2018-05-01T06:06:26.924Z,51.31
2018-05-01T06:07:26.890Z,51.12
2018-05-01T06:08:26.868Z,50.84
2018-05-01T06:09:26.846Z,51.41
2018-05-01T06:10:26.824Z,51.31
2018-05-01T06:11:26.803Z,51.31
2018-05-01T06:12:26.786Z,50.84
2018-05-01T06:13:26.842Z,50.55
2018-05-01T06:14:26.738Z,49.78
2018-05-01T06:15:26.719Z,49.78
2018-05-01T06:16:26.702Z,50.64
2018-05-01T06:17:26.675Z,50.07
2018-05-01T06:18:26.652Z,49.69
2018-05-01T06:19:26.636Z,50.07
2018-05-01T06:20:26.659Z,49.88
2018-05-01T06:21:26.590Z,50.07
2018-05-01T06:22:26.583Z,49.40
2018-05-01T06:23:26.545Z,49.88
2018-05-01T06:24:26.542Z,48.54
2018-05-01T06:25:26.501Z,48.83
2018-05-01T06:26:26.482Z,49.11
2018-05-01T06:27:26.461Z,49.21
2018-05-01T06:28:26.440Z,49.21
2018-05-01T06:29:26.423Z,48.93
2018-05-01T06:30:26.396Z,48.83
2018-05-01T06:31:26.391Z,48.44
2018-05-01T06:32:26.354Z,48.83
2018-05-01T06:33:26.335Z,48.93
2018-05-01T06:34:26.310Z,48.25
2018-05-01T06:35:26.293Z,47.97
2018-05-01T06:36:26.272Z,48.16
2018-05-01T06:37:27.241Z,47.97
2018-05-01T06:38:26.231Z,47.78
2018-05-01T06:39:26.210Z,47.78
2018-05-01T06:40:26.186Z,47.97
2018-05-01T06:41:26.176Z,47.87
2018-05-01T06:42:26.161Z,47.97
2018-05-01T06:43:26.153Z,48.07
2018-05-01T06:44:26.176Z,48.07
2018-05-01T06:45:26.171Z,48.54
2018-05-01T06:46:26.214Z,47.97
2018-05-01T06:47:26.073Z,48.44
2018-05-01T06:48:26.015Z,47.78
2018-05-01T06:49:25.995Z,47.87
2018-05-01T06:50:25.976Z,47.87
2018-05-01T06:51:25.952Z,48.44
2018-05-01T06:52:25.929Z,47.68
2018-05-01T06:53:25.906Z,47.30
2018-05-01T06:54:25.890Z,47.68
2018-05-01T06:55:25.871Z,47.01
2018-05-01T06:56:25.862Z,47.01
2018-05-01T06:57:25.828Z,46.44
2018-05-01T07:00:02.147Z,47.01
2018-05-01T07:01:01.904Z,47.11
2018-05-01T07:02:58.978Z,46.25
2018-05-01T07:03:58.802Z,46.15
2018-05-01T07:05:55.836Z,46.15
2018-05-01T07:06:55.777Z,46.53
2018-05-01T07:08:52.814Z,46.25
2018-05-01T07:09:52.691Z,46.25
2018-05-01T07:11:48.705Z,46.06
2018-05-01T07:12:48.618Z,45.77
2018-05-01T07:13:48.601Z,46.44
2018-05-01T07:14:48.578Z,46.63
2018-05-01T07:15:48.606Z,45.96
2018-05-01T07:16:48.548Z,46.53
2018-05-01T07:17:48.899Z,46.06
2018-05-01T07:18:48.497Z,46.25
2018-05-01T07:19:48.466Z,46.44
2018-05-01T07:20:48.447Z,46.63
2018-05-01T07:21:48.428Z,46.72
2018-05-01T07:22:48.403Z,46.82
2018-05-01T07:23:48.382Z,47.11
2018-05-01T07:24:48.369Z,46.63
2018-05-01T07:25:48.338Z,46.82
2018-05-01T07:26:48.315Z,46.25
2018-05-01T07:27:48.298Z,46.15
2018-05-01T07:28:48.273Z,46.25
2018-05-01T07:29:48.262Z,45.96
2018-05-01T07:30:48.235Z,45.51
2018-05-01T07:31:48.208Z,45.96
2018-05-01T07:32:48.196Z,44.81
2018-05-01T07:33:48.195Z,45.48
2018-05-01T07:34:48.199Z,46.15
2018-05-01T07:35:48.204Z,46.15
2018-05-01T07:36:48.177Z,45.96
2018-05-01T07:37:48.108Z,46.15
2018-05-01T07:38:48.161Z,46.34
2018-05-01T07:39:48.040Z,46.34
2018-05-01T07:40:48.030Z,46.53
2018-05-01T07:41:48.042Z,46.25
2018-05-01T07:42:47.993Z,46.06
2018-05-01T07:43:51.043Z,46.34
2018-05-01T07:44:47.950Z,46.44
2018-05-01T07:45:47.920Z,46.53
2018-05-01T07:46:47.897Z,45.96
2018-05-01T07:47:47.874Z,46.25
2018-05-01T07:48:47.875Z,45.48
2018-05-01T07:49:47.873Z,46.15
2018-05-01T07:50:47.809Z,45.79
2018-05-01T07:51:47.784Z,46.15
2018-05-01T07:52:47.770Z,45.39
2018-05-01T07:53:47.748Z,45.67
2018-05-01T07:54:47.721Z,45.77
2018-05-01T07:55:47.698Z,45.58
2018-05-01T07:56:47.676Z,45.96
2018-05-01T07:57:47.668Z,45.67
2018-05-01T07:58:47.636Z,46.06
2018-05-01T07:59:47.612Z,46.06
2018-05-01T08:00:47.677Z,45.67
2018-05-01T08:01:47.569Z,46.06
2018-05-01T08:02:47.575Z,45.96
2018-05-01T08:03:47.528Z,45.67
2018-05-01T08:04:47.509Z,45.48
2018-05-01T08:05:47.486Z,45.48
2018-05-01T08:06:47.467Z,45.87
2018-05-01T08:07:47.445Z,46.15
2018-05-01T08:08:47.425Z,45.58
2018-05-01T08:09:47.400Z,45.20
2018-05-01T08:10:47.379Z,45.29
2018-05-01T08:12:08.392Z,45.29
2018-05-01T08:12:47.337Z,45.10
2018-05-01T08:13:47.314Z,45.10
2018-05-01T08:14:47.291Z,44.72
2018-05-01T08:15:47.272Z,44.62
2018-05-01T08:16:47.255Z,44.24
2018-05-01T08:17:47.229Z,45.01
2018-05-01T08:18:47.215Z,44.34
2018-05-01T08:19:47.185Z,44.72
2018-05-01T08:20:47.169Z,45.01
2018-05-01T08:21:47.144Z,45.29
2018-05-01T08:22:47.130Z,44.81
2018-05-01T08:23:47.098Z,45.10
2018-05-01T08:24:47.080Z,44.72
2018-05-01T08:25:47.059Z,44.93
2018-05-01T08:26:47.034Z,44.43
2018-05-01T08:27:47.013Z,44.24
2018-05-01T08:28:46.991Z,44.17
2018-05-01T08:29:46.985Z,44.36
2018-05-01T08:30:46.989Z,44.84
2018-05-01T08:31:46.982Z,44.36
2018-05-01T08:32:46.924Z,44.93
2018-05-01T08:33:46.885Z,44.84
2018-05-01T08:34:46.865Z,44.74
2018-05-01T08:35:46.841Z,44.17
2018-05-01T08:36:46.825Z,44.26
2018-05-01T08:37:46.807Z,43.88
2018-05-01T08:38:46.786Z,43.79
2018-05-01T08:39:46.769Z,43.79
2018-05-01T08:40:46.734Z,44.38
2018-05-01T08:41:46.716Z,44.48
2018-05-01T08:42:49.613Z,43.71
2018-05-01T08:43:46.673Z,42.94
2018-05-01T08:44:46.649Z,42.37
2018-05-01T08:45:46.628Z,43.43
2018-05-01T08:46:46.605Z,42.85
2018-05-01T08:47:46.583Z,42.68
2018-05-01T08:48:46.696Z,42.01
2018-05-01T08:49:46.563Z,41.72
2018-05-01T08:50:46.529Z,41.15
2018-05-01T08:51:46.499Z,41.44
2018-05-01T08:52:46.482Z,41.05
2018-05-01T08:53:46.457Z,40.77
2018-05-01T08:54:46.436Z,40.19
2018-05-01T08:55:46.415Z,40.67
2018-05-01T08:56:46.398Z,41.05
2018-05-01T08:57:46.373Z,41.17
2018-05-01T08:58:46.354Z,39.92
2018-05-01T08:59:46.331Z,40.41
2018-05-01T09:00:46.313Z,40.12
2018-05-01T09:01:46.289Z,40.31
2018-05-01T09:02:46.292Z,40.02
2018-05-01T09:03:46.275Z,39.54
2018-05-01T09:04:46.280Z,39.83
2018-05-01T09:05:46.281Z,40.02
2018-05-01T09:06:46.254Z,39.94
2018-05-01T09:07:46.237Z,39.08
2018-05-01T09:08:46.144Z,39.08
2018-05-01T09:09:46.131Z,39.94
2018-05-01T09:10:46.102Z,39.08
2018-05-01T09:11:46.085Z,38.98
2018-05-01T09:12:46.098Z,38.34
2018-05-01T09:13:46.098Z,38.14
2018-05-01T09:14:46.023Z,37.38
2018-05-01T09:15:46.001Z,37.59
2018-05-01T09:16:45.983Z,37.30
2018-05-01T09:17:46.071Z,37.03
2018-05-01T09:18:45.939Z,36.36
2018-05-01T09:19:45.921Z,35.80
2018-05-01T09:20:45.893Z,35.13
2018-05-01T09:21:45.879Z,35.34
2018-05-01T09:22:45.853Z,35.16
2018-05-01T09:23:45.836Z,34.59
2018-05-01T09:24:45.821Z,34.22
2018-05-01T09:25:45.795Z,33.54
2018-05-01T09:26:45.773Z,33.07
2018-05-01T09:27:45.752Z,32.97
2018-05-01T09:28:45.739Z,32.87
2018-05-01T09:29:45.713Z,32.70
2018-05-01T09:30:45.692Z,32.60
2018-05-01T09:31:45.673Z,32.41
2018-05-01T09:32:45.659Z,32.04
2018-05-01T09:33:45.647Z,32.33
2018-05-01T09:34:45.625Z,31.37
2018-05-01T09:35:45.590Z,31.29
2018-05-01T09:36:45.580Z,31.29
2018-05-01T09:37:45.555Z,31.00
2018-05-01T09:38:45.541Z,31.09
2018-05-01T09:39:45.511Z,31.29
2018-05-01T09:40:45.503Z,31.19
2018-05-01T09:41:45.473Z,31.38
2018-05-01T09:42:45.474Z,31.57
2018-05-01T09:43:45.449Z,31.09
2018-05-01T09:44:45.416Z,30.90
2018-05-01T09:45:45.395Z,31.56
2018-05-01T09:46:45.384Z,31.18
2018-05-01T09:47:45.356Z,31.19
2018-05-01T09:48:45.344Z,31.18
2018-05-01T09:49:45.319Z,31.08
2018-05-01T09:50:45.298Z,32.04
2018-05-01T09:51:45.281Z,32.04
2018-05-01T09:52:45.264Z,32.14
2018-05-01T09:53:45.243Z,31.56
2018-05-01T09:54:45.255Z,31.08
2018-05-01T09:55:45.229Z,31.95
2018-05-01T09:56:45.188Z,32.14
2018-05-01T09:57:45.213Z,31.18
2018-05-01T09:58:45.273Z,30.11
2018-05-01T09:59:45.135Z,30.50
2018-05-01T10:00:45.122Z,30.98
2018-05-01T10:01:45.159Z,31.46
2018-05-01T10:02:45.078Z,31.27
2018-05-01T10:03:45.055Z,30.79
2018-05-01T10:04:45.043Z,30.79
2018-05-01T10:05:45.027Z,31.16
2018-05-01T10:06:45.012Z,32.01
2018-05-01T10:07:44.983Z,32.49
2018-05-01T10:08:44.970Z,32.59
2018-05-01T10:09:44.960Z,33.82
2018-05-01T10:10:44.942Z,33.53
2018-05-01T10:11:44.911Z,33.15
2018-05-01T10:12:44.894Z,32.57
2018-05-01T10:13:44.876Z,32.10
2018-05-01T10:14:44.862Z,31.99
2018-05-01T10:15:44.839Z,32.28
2018-05-01T10:16:44.831Z,32.28
2018-05-01T10:17:44.814Z,32.57
2018-05-01T10:18:44.815Z,33.44
2018-05-01T10:19:44.767Z,33.53
2018-05-01T10:20:44.756Z,33.53
2018-05-01T10:21:44.731Z,33.07
2018-05-01T10:22:44.724Z,33.07
2018-05-01T10:23:44.708Z,33.64
2018-05-01T10:24:44.679Z,33.74
2018-05-01T10:25:44.667Z,33.26
2018-05-01T10:26:44.644Z,32.39
2018-05-01T10:27:44.628Z,32.01
2018-05-01T10:28:44.679Z,32.21
2018-05-01T10:29:44.592Z,32.10
2018-05-01T10:30:44.578Z,32.10
2018-05-01T10:31:44.564Z,32.03
2018-05-01T10:32:44.546Z,32.20
2018-05-01T10:33:44.530Z,32.30
2018-05-01T10:34:44.527Z,32.60
2018-05-01T10:35:44.492Z,32.51
2018-05-01T10:36:44.475Z,32.60
2018-05-01T10:37:44.462Z,32.60
2018-05-01T10:38:44.551Z,32.12
2018-05-01T10:39:44.429Z,32.12
2018-05-01T10:40:44.409Z,32.12
2018-05-01T10:41:44.404Z,32.31
2018-05-01T10:42:44.435Z,32.51
2018-05-01T10:43:44.426Z,32.31
2018-05-01T10:44:44.429Z,32.03
2018-05-01T10:45:44.442Z,32.51
2018-05-01T10:46:44.428Z,32.12
2018-05-01T10:47:44.379Z,32.31
2018-05-01T10:48:44.366Z,32.12
2018-05-01T10:49:44.399Z,31.06
2018-05-01T10:50:44.395Z,31.54
2018-05-01T10:51:44.231Z,32.31
2018-05-01T10:52:44.232Z,32.03
2018-05-01T10:53:44.336Z,31.93
2018-05-01T10:54:44.252Z,32.21
2018-05-01T10:55:44.172Z,32.03
2018-05-01T10:56:44.163Z,32.12
2018-05-01T10:57:44.137Z,31.83
2018-05-01T10:58:44.127Z,32.03
2018-05-01T10:59:44.115Z,32.31
2018-05-01T11:00:44.087Z,32.21
2018-05-01T11:01:44.083Z,32.03
2018-05-01T11:02:44.057Z,32.03
2018-05-01T11:03:44.039Z,31.93
2018-05-01T11:04:44.024Z,32.03
2018-05-01T11:05:44.010Z,31.93
2018-05-01T11:06:43.993Z,31.16
2018-05-01T11:07:44.022Z,31.43
2018-05-01T11:08:43.964Z,32.01
2018-05-01T11:09:43.953Z,32.68
2018-05-01T11:10:43.936Z,32.68
2018-05-01T11:11:43.925Z,32.01
2018-05-01T11:12:43.902Z,32.10
2018-05-01T11:13:43.887Z,32.59
2018-05-01T11:14:43.869Z,32.59
2018-05-01T11:15:43.850Z,32.39
2018-05-01T11:16:43.837Z,32.30
2018-05-01T11:17:43.818Z,32.49
2018-05-01T11:18:43.807Z,32.67
2018-05-01T11:19:43.822Z,32.67
2018-05-01T11:20:43.769Z,34.09
2018-05-01T11:21:43.758Z,34.20
2018-05-01T11:22:43.739Z,33.90
2018-05-01T11:23:43.720Z,32.67
2018-05-01T11:24:43.710Z,32.28
2018-05-01T11:25:43.696Z,32.47
2018-05-01T11:26:43.673Z,32.57
2018-05-01T11:27:43.652Z,32.57
2018-05-01T11:28:43.637Z,32.67
2018-05-01T11:29:43.621Z,33.16
2018-05-01T11:30:43.638Z,33.72
2018-05-01T11:31:43.589Z,33.82
2018-05-01T11:32:43.573Z,33.62
2018-05-01T11:33:43.617Z,33.62
2018-05-01T11:34:43.553Z,34.12
2018-05-01T11:35:43.522Z,32.59
2018-05-01T11:36:43.504Z,31.82
2018-05-01T11:37:43.489Z,32.10
2018-05-01T11:38:43.481Z,32.20
2018-05-01T11:39:43.458Z,32.01
2018-05-01T11:40:43.478Z,32.10
2018-05-01T11:41:43.477Z,32.01
2018-05-01T11:42:43.408Z,32.31
2018-05-01T11:43:43.395Z,31.16
2018-05-01T11:44:43.371Z,31.54
2018-05-01T11:45:43.355Z,31.16
2018-05-01T11:46:43.358Z,31.06
2018-05-01T11:47:43.335Z,30.49
2018-05-01T11:48:43.361Z,30.66
2018-05-01T11:49:43.290Z,31.03
2018-05-01T11:50:43.279Z,31.99
2018-05-01T11:51:43.262Z,31.98
2018-05-01T11:52:43.243Z,32.75
2018-05-01T11:53:43.262Z,33.88
2018-05-01T11:54:43.213Z,34.75
2018-05-01T11:55:43.194Z,34.75
2018-05-01T11:56:43.174Z,35.11
2018-05-01T11:57:43.158Z,35.40
2018-05-01T11:58:44.065Z,35.97
2018-05-01T11:59:43.123Z,36.36
2018-05-01T12:00:43.131Z,35.13
2018-05-01T12:01:43.086Z,34.73
2018-05-01T12:02:43.160Z,34.53
2018-05-01T12:03:43.049Z,34.82
2018-05-01T12:04:43.036Z,35.02
2018-05-01T12:05:43.016Z,34.82
2018-05-01T12:06:42.998Z,34.82
2018-05-01T12:07:42.990Z,35.02
2018-05-01T12:08:43.002Z,35.11
2018-05-01T12:09:42.950Z,35.69
2018-05-01T12:10:42.934Z,35.88
2018-05-01T12:11:42.913Z,35.49
2018-05-01T12:12:42.897Z,36.47
2018-05-01T12:13:42.876Z,35.61
2018-05-01T12:14:42.856Z,34.45
2018-05-01T12:15:42.838Z,33.88
2018-05-01T12:16:42.817Z,33.70
2018-05-01T12:17:42.800Z,33.80
2018-05-01T12:18:42.875Z,33.51
2018-05-01T12:19:43.358Z,33.34
2018-05-01T12:20:42.750Z,32.67
2018-05-01T12:21:42.726Z,32.67
2018-05-01T12:22:42.710Z,32.57
2018-05-01T12:23:42.706Z,32.95
2018-05-01T12:24:42.677Z,32.86
2018-05-01T12:25:42.664Z,32.38
2018-05-01T12:26:42.660Z,31.99
2018-05-01T12:27:42.650Z,32.18
2018-05-01T12:28:42.603Z,31.51
2018-05-01T12:29:42.626Z,32.09
2018-05-01T12:30:42.603Z,31.99
2018-05-01T12:31:42.543Z,32.18
2018-05-01T12:32:42.532Z,32.28
2018-05-01T12:33:42.514Z,32.09
2018-05-01T12:34:42.491Z,32.18
2018-05-01T12:35:42.496Z,32.57
2018-05-01T12:36:42.554Z,32.67
2018-05-01T12:37:42.500Z,32.67
2018-05-01T12:38:42.497Z,32.76
2018-05-01T12:39:42.445Z,32.47
2018-05-01T12:40:42.628Z,32.47
2018-05-01T12:41:42.433Z,34.01
2018-05-01T12:42:42.347Z,34.49
2018-05-01T12:43:42.326Z,35.36
2018-05-01T12:44:42.311Z,35.45
2018-05-01T12:45:42.292Z,34.68
2018-05-01T12:46:42.305Z,34.41
2018-05-01T12:47:42.252Z,33.84
2018-05-01T12:48:42.235Z,33.91
2018-05-01T12:49:42.216Z,34.01
2018-05-01T12:50:42.199Z,34.09
2018-05-01T12:51:42.178Z,33.90
2018-05-01T12:52:42.187Z,34.49
2018-05-01T12:53:42.191Z,34.95
2018-05-01T12:54:42.126Z,35.06
2018-05-01T12:55:42.208Z,34.59
2018-05-01T12:56:42.094Z,34.47
2018-05-01T12:57:42.070Z,34.86
2018-05-01T12:58:42.051Z,35.43
2018-05-01T12:59:42.034Z,35.53
2018-05-01T13:00:42.019Z,35.14
2018-05-01T13:01:41.994Z,35.05
2018-05-01T13:02:41.982Z,35.24
2018-05-01T13:03:41.959Z,35.36
2018-05-01T13:04:41.936Z,34.88
2018-05-01T13:05:41.921Z,34.68
2018-05-01T13:06:41.922Z,34.09